Time;durP1;ratioP1;P1;durP2;ratioP2;P2;SDS_P1;SDS_P2;PMS_P1;PMS_P2;Temp;Humidity;BMP_temperature;BMP_pressure;BME280_temperature;BME280_humidity;BME280_pressure;Samples;Min_cycle;Max_cycle;Signal;HPM_P1;HPM_P2
2024/01/09 12:01:05;;;;;;;15.15;5.78;;;;;;;-5.67;63.88;101158.56;1895701;75;22204;-85
2024/01/09 12:04:11;;;;;;;11.55;5.37;;;;;;;-5.97;64.34;101146.73;1820328;79;21358;-81
2024/01/09 12:07:18;;;;;;;9.83;5.37;;;;;;;-5.75;63.65;101152.61;1809682;79;21255;-86
2024/01/09 12:10:25;;;;;;;10.10;5.22;;;;;;;-5.68;61.92;101160.83;1807737;79;21306;-80
2024/01/09 12:13:31;;;;;;;10.00;5.28;;;;;;;-5.62;61.22;101165.94;1807461;79;21305;-86
2024/01/09 12:16:37;;;;;;;9.93;5.50;;;;;;;-5.67;59.43;101162.56;1807401;79;22305;-85
2024/01/09 12:19:44;;;;;;;11.35;5.03;;;;;;;-5.62;59.81;101161.07;1808581;79;21294;-80
2024/01/09 12:22:50;;;;;;;9.28;4.67;;;;;;;-5.48;59.53;101160.13;1795574;78;21582;-87
2024/01/09 12:25:56;;;;;;;9.40;5.20;;;;;;;-5.27;57.71;101163.81;1824456;77;22270;-85
2024/01/09 12:29:03;;;;;;;8.83;4.78;;;;;;;-5.34;56.86;101183.64;1820794;79;21327;-82
2024/01/09 12:32:11;;;;;;;9.05;5.15;;;;;;;-5.67;57.64;101178.09;1821005;79;21543;-80
2024/01/09 12:35:18;;;;;;;13.65;4.97;;;;;;;-5.62;57.95;101196.59;1823668;77;21287;-81
2024/01/09 12:38:24;;;;;;;9.05;5.08;;;;;;;-5.73;56.95;101203.63;1849223;77;21294;-86
2024/01/09 12:41:31;;;;;;;9.45;4.87;;;;;;;-5.87;57.85;101200.55;1832562;77;21268;-80
2024/01/09 12:44:36;;;;;;;10.00;5.20;;;;;;;-5.95;58.23;101195.48;1820549;77;21294;-86
2024/01/09 12:47:41;;;;;;;11.78;5.72;;;;;;;-5.94;58.46;101205.22;1804049;77;21791;-86
2024/01/09 12:50:48;;;;;;;9.50;5.70;;;;;;;-6.02;59.23;101187.73;1826611;77;21373;-81
2024/01/09 12:53:54;;;;;;;12.18;6.17;;;;;;;-5.76;59.12;101205.05;1821304;77;21369;-81
2024/01/09 12:57:01;;;;;;;11.85;6.15;;;;;;;-5.73;59.43;101214.28;1839494;77;21892;-84
2024/01/09 13:00:07;;;;;;;15.80;6.55;;;;;;;-5.77;60.28;101217.10;1826066;77;21854;-86
2024/01/09 13:03:13;;;;;;;18.12;7.87;;;;;;;-5.46;60.51;101220.92;1836684;77;21274;-81
2024/01/09 13:06:20;;;;;;;15.55;8.00;;;;;;;-5.59;60.92;101219.16;1851076;77;21784;-81
2024/01/09 13:09:26;;;;;;;18.32;8.85;;;;;;;-5.49;60.85;101205.91;1848833;77;21738;-82
2024/01/09 13:12:32;;;;;;;13.58;7.80;;;;;;;-5.48;61.56;101208.98;1840877;77;21283;-86
2024/01/09 13:15:39;;;;;;;17.52;8.63;;;;;;;-5.54;61.83;101215.00;1849808;77;21275;-86
2024/01/09 13:18:45;;;;;;;18.65;7.47;;;;;;;-5.64;62.81;101213.11;1859174;77;21779;-83
2024/01/09 13:21:51;;;;;;;22.82;9.73;;;;;;;-5.52;63.15;101223.80;1826209;78;21287;-81
2024/01/09 13:24:58;;;;;;;26.87;13.93;;;;;;;-5.62;63.78;101236.58;1818130;77;21871;-81
2024/01/09 13:28:05;;;;;;;18.27;11.03;;;;;;;-5.48;62.48;101248.11;1839206;77;21287;-81
2024/01/09 13:31:12;;;;;;;29.02;11.93;;;;;;;-5.46;62.07;101259.58;1842143;77;21307;-81
2024/01/09 13:34:18;;;;;;;31.80;12.35;;;;;;;-5.69;62.53;101263.91;1827408;78;21298;-80
2024/01/09 13:37:25;;;;;;;24.15;9.95;;;;;;;-5.78;63.12;101279.33;1813843;78;21271;-86
2024/01/09 13:40:30;;;;;;;14.28;9.10;;;;;;;-5.87;63.26;101271.63;1841188;77;21275;-81
2024/01/09 13:43:39;;;;;;;19.12;9.70;;;;;;;-6.02;63.91;101294.29;1852216;77;21259;-81
2024/01/09 13:46:45;;;;;;;17.32;10.20;;;;;;;-5.99;63.49;101303.07;1821253;77;21257;-80
2024/01/09 13:49:50;;;;;;;19.62;10.70;;;;;;;-6.03;63.37;101292.55;1845192;77;22160;-86
2024/01/09 13:52:58;;;;;;;17.95;9.60;;;;;;;-6.30;63.73;101294.28;1851646;76;21235;-86
2024/01/09 13:56:05;;;;;;;27.80;13.15;;;;;;;-6.47;64.41;101307.61;1785316;79;21261;-86
2024/01/09 13:59:11;;;;;;;42.62;20.52;;;;;;;-6.38;64.87;101306.94;1789813;79;21299;-81
2024/01/09 14:05:41;;;;;;;29.07;13.58;;;;;;;-6.26;64.21;101311.89;1722839;83;21875;-80
2024/01/09 14:08:48;;;;;;;24.60;13.35;;;;;;;-6.40;64.76;101304.77;1738470;82;21950;-86
2024/01/09 14:11:48;;;;;;;21.02;11.88;;;;;;;-6.28;64.85;101312.41;1740258;81;21905;-86
2024/01/09 14:14:42;;;;;;;25.00;12.45;;;;;;;-6.55;65.42;101298.09;1739984;81;21298;-84
2024/01/09 14:17:29;;;;;;;19.70;11.15;;;;;;;-6.61;65.90;101301.81;1757622;80;21274;-81
2024/01/09 14:20:24;;;;;;;16.73;9.33;;;;;;;-6.74;66.12;101309.72;1719288;83;21333;-82
2024/01/09 14:23:30;;;;;;;11.63;7.72;;;;;;;-6.81;66.23;101316.14;1761954;80;21310;-86
2024/01/09 14:26:35;;;;;;;15.20;8.60;;;;;;;-6.50;65.64;101321.46;1789578;79;21832;-83
2024/01/09 14:29:40;;;;;;;19.67;9.70;;;;;;;-6.35;64.88;101329.46;1784313;79;21707;-87
2024/01/09 14:32:46;;;;;;;35.73;17.25;;;;;;;-6.50;65.16;101334.77;1779117;79;21270;-86
2024/01/09 14:36:05;;;;;;;66.47;30.05;;;;;;;-6.62;65.00;101341.79;1790407;79;21299;-81
2024/01/09 14:39:20;;;;;;;13.07;7.00;;;;;;;-6.81;66.01;101342.28;1781907;79;21357;-86
2024/01/09 14:42:26;;;;;;;13.00;8.28;;;;;;;-6.56;65.44;101350.92;1784243;79;21932;-87
2024/01/09 14:45:32;;;;;;;16.70;9.38;;;;;;;-6.26;64.22;101344.71;1778829;80;21320;-87
2024/01/09 14:48:37;;;;;;;24.12;12.47;;;;;;;-6.47;64.65;101344.88;1811664;79;21323;-81
2024/01/09 14:51:47;;;;;;;22.95;11.70;;;;;;;-6.52;64.58;101344.61;1787513;80;21278;-87
2024/01/09 14:55:14;;;;;;;14.90;9.30;;;;;;;-7.00;65.45;101341.90;1796177;79;21316;-87
2024/01/09 14:58:20;;;;;;;35.05;16.85;;;;;;;-6.88;65.85;101339.81;1790826;79;21875;-83
2024/01/09 15:01:27;;;;;;;31.65;20.00;;;;;;;-6.33;64.31;101330.31;1793096;79;21877;-81
2024/01/09 15:04:32;;;;;;;61.08;26.07;;;;;;;-6.21;64.03;101332.17;1782502;77;21305;-81
2024/01/09 15:07:39;;;;;;;46.90;16.00;;;;;;;-5.98;63.28;101339.44;1782850;80;21293;-83
2024/01/09 15:10:45;;;;;;;178.47;63.95;;;;;;;-6.23;63.48;101339.77;1807275;79;21840;-86
2024/01/09 15:13:51;;;;;;;58.15;24.67;;;;;;;-6.15;63.25;101347.09;1733160;82;21255;-87
2024/01/09 15:16:57;;;;;;;20.05;9.55;;;;;;;-5.97;62.90;101351.87;1734585;83;21279;-82
2024/01/09 15:20:05;;;;;;;22.00;10.75;;;;;;;-6.83;64.57;101341.89;1733794;82;21355;-83
2024/01/09 15:23:11;;;;;;;15.43;8.78;;;;;;;-6.60;65.46;101346.59;1734446;80;21835;-87
2024/01/09 15:26:18;;;;;;;66.55;19.92;;;;;;;-6.51;64.67;101342.35;1735744;81;21813;-87
2024/01/09 15:29:23;;;;;;;118.25;30.25;;;;;;;-6.54;64.50;101349.98;1773718;80;21327;-82
2024/01/09 15:32:30;;;;;;;90.77;23.32;;;;;;;-6.46;64.51;101337.77;1775713;80;21912;-83
2024/01/09 15:35:37;;;;;;;105.60;23.00;;;;;;;-6.67;65.28;101335.27;1778204;80;21640;-82
2024/01/09 15:38:43;;;;;;;139.32;26.62;;;;;;;-6.52;65.03;101333.49;1789364;79;21826;-81
2024/01/09 15:41:49;;;;;;;59.23;15.43;;;;;;;-6.50;64.75;101343.62;1788692;79;21270;-84
2024/01/09 15:44:55;;;;;;;81.60;20.30;;;;;;;-6.30;64.38;101336.89;1774851;80;21347;-86
2024/01/09 15:48:02;;;;;;;46.55;17.30;;;;;;;-6.08;63.73;101341.98;1732888;83;21917;-81
2024/01/09 15:51:13;;;;;;;148.02;30.48;;;;;;;-6.08;63.84;101350.43;1763854;79;21815;-86
2024/01/09 15:54:21;;;;;;;56.50;16.17;;;;;;;-6.45;64.91;101340.38;1732997;83;21346;-86
2024/01/09 15:57:27;;;;;;;27.32;12.18;;;;;;;-6.06;64.08;101349.48;1750646;81;21313;-86
2024/01/09 16:00:27;;;;;;;98.45;20.10;;;;;;;-6.01;63.73;101354.20;1745279;79;21839;-81
2024/01/09 16:03:33;;;;;;;81.85;18.12;;;;;;;-5.76;62.93;101350.30;1734608;80;21299;-82
2024/01/09 16:06:40;;;;;;;90.55;23.98;;;;;;;-6.10;64.09;101362.47;1773059;80;21242;-86
2024/01/09 16:09:46;;;;;;;136.43;24.60;;;;;;;-6.03;63.75;101372.02;1776823;80;21303;-86
2024/01/09 16:12:52;;;;;;;58.95;14.03;;;;;;;-6.14;63.87;101376.80;1772124;80;21285;-87
2024/01/09 16:15:59;;;;;;;61.55;16.02;;;;;;;-5.84;62.87;101384.75;1797967;77;21868;-81
2024/01/09 16:19:06;;;;;;;36.83;12.30;;;;;;;-5.90;63.83;101380.48;1787551;80;21843;-82
2024/01/09 16:22:13;;;;;;;53.70;19.40;;;;;;;-5.89;63.80;101380.02;1812120;79;21268;-81
2024/01/09 16:25:19;;;;;;;42.55;21.33;;;;;;;-5.79;63.21;101371.70;1772621;80;21250;-87
2024/01/09 16:28:24;;;;;;;58.35;23.75;;;;;;;-5.87;63.06;101391.53;1815585;78;21303;-87
2024/01/09 16:31:25;;;;;;;34.63;13.40;;;;;;;-5.80;62.48;101402.40;1830482;78;21295;-87
2024/01/09 16:34:18;;;;;;;22.25;9.05;;;;;;;-5.47;61.08;101381.83;1819111;78;21338;-86
2024/01/09 16:37:25;;;;;;;20.75;10.05;;;;;;;-6.27;62.56;101392.70;1797990;80;21292;-81
2024/01/09 16:40:35;;;;;;;18.80;8.88;;;;;;;-6.26;63.50;101389.11;1796713;80;21852;-86
2024/01/09 16:47:22;;;;;;;12.90;8.30;;;;;;;-6.01;62.11;101394.62;1782025;80;21310;-86
2024/01/09 16:50:28;;;;;;;45.33;21.95;;;;;;;-5.91;61.31;101399.60;1753674;79;21809;-81
2024/01/09 16:53:35;;;;;;;19.67;11.38;;;;;;;-6.25;62.19;101394.88;1775370;79;21334;-86
2024/01/09 16:56:41;;;;;;;15.15;8.18;;;;;;;-6.21;61.86;101402.74;1787501;79;21243;-81
2024/01/09 16:59:46;;;;;;;17.92;10.63;;;;;;;-6.22;61.49;101404.97;1797673;80;21894;-86
2024/01/09 17:02:54;;;;;;;13.30;7.85;;;;;;;-6.15;61.16;101405.68;1777117;80;21819;-86
2024/01/09 17:06:00;;;;;;;10.55;6.53;;;;;;;-6.30;61.00;101399.47;1792541;78;21291;-80
2024/01/09 17:09:06;;;;;;;13.58;7.37;;;;;;;-6.79;62.47;101390.13;1829045;77;21357;-80
2024/01/09 17:12:12;;;;;;;11.08;6.42;;;;;;;-6.57;62.68;101391.77;1823314;78;21827;-79
2024/01/09 17:15:25;;;;;;;16.82;9.03;;;;;;;-6.46;62.48;101387.89;1788650;80;21943;-80
2024/01/09 17:18:26;;;;;;;12.45;6.67;;;;;;;-6.33;61.74;101390.22;1765440;80;21910;-82
2024/01/09 17:21:32;;;;;;;10.72;6.33;;;;;;;-5.77;61.32;101394.33;1790249;79;21252;-83
2024/01/09 17:24:38;;;;;;;10.63;5.75;;;;;;;-5.59;59.96;101396.44;1816632;78;21814;-80
2024/01/09 17:27:48;;;;;;;8.83;5.63;;;;;;;-5.17;58.47;101391.99;1804760;78;21261;-80
2024/01/09 17:30:53;;;;;;;8.98;5.65;;;;;;;-5.47;59.03;101393.83;1800148;79;21305;-85
2024/01/09 17:34:01;;;;;;;10.63;5.85;;;;;;;-5.32;58.04;101387.13;1801545;78;21288;-86
2024/01/09 17:37:07;;;;;;;17.85;9.83;;;;;;;-5.27;57.35;101390.09;1812764;78;21251;-81
2024/01/09 17:40:15;;;;;;;13.38;7.47;;;;;;;-5.41;57.47;101386.95;1810274;78;21334;-85
2024/01/09 17:43:21;;;;;;;24.60;13.00;;;;;;;-5.41;57.22;101386.53;1801124;79;21269;-80
2024/01/09 17:46:26;;;;;;;24.43;15.58;;;;;;;-5.62;56.93;101392.52;1784412;80;21327;-80
2024/01/09 17:49:32;;;;;;;47.70;24.98;;;;;;;-5.38;56.94;101388.67;1774309;79;21301;-80
2024/01/09 17:52:39;;;;;;;28.65;16.32;;;;;;;-5.54;57.45;101383.83;1816581;78;21224;-86
2024/01/09 17:55:46;;;;;;;21.80;14.78;;;;;;;-6.81;58.35;101390.64;1782105;80;22165;-80
2024/01/09 17:58:53;;;;;;;16.45;10.88;;;;;;;-7.64;63.50;101394.43;1800271;79;21281;-81
2024/01/09 18:02:00;;;;;;;13.38;7.95;;;;;;;-7.33;63.90;101386.63;1774270;80;21272;-80
2024/01/09 18:05:07;;;;;;;14.33;8.28;;;;;;;-7.53;64.34;101385.31;1789189;80;22190;-81
2024/01/09 18:08:14;;;;;;;11.45;7.30;;;;;;;-7.11;63.63;101383.84;1805103;78;21227;-82
2024/01/09 18:11:34;;;;;;;12.28;7.92;;;;;;;-7.25;61.93;101384.17;1778131;80;21232;-81
2024/01/09 18:14:39;;;;;;;14.50;9.35;;;;;;;-6.73;62.46;101377.98;1791124;80;21290;-80
2024/01/09 18:17:48;;;;;;;16.70;8.53;;;;;;;-7.60;64.11;101379.71;1797189;78;21947;-85
2024/01/09 18:20:54;;;;;;;14.40;8.35;;;;;;;-7.83;65.52;101371.39;1786177;80;21283;-83
2024/01/09 18:24:01;;;;;;;15.25;7.47;;;;;;;-7.64;65.40;101379.36;1829706;77;21291;-80
2024/01/09 18:27:07;;;;;;;12.95;8.23;;;;;;;-7.30;63.89;101378.55;1775116;80;21283;-86
2024/01/09 18:30:14;;;;;;;20.85;14.63;;;;;;;-6.87;62.12;101374.81;1813919;78;21883;-80
2024/01/09 18:33:20;;;;;;;18.65;11.75;;;;;;;-7.95;64.79;101376.95;1780030;80;21269;-83
2024/01/09 18:36:27;;;;;;;24.02;15.68;;;;;;;-6.28;61.21;101363.88;1802868;79;21307;-85
2024/01/09 18:39:33;;;;;;;14.40;7.28;;;;;;;-5.78;58.19;101356.61;1772266;80;21386;-80
2024/01/09 18:42:39;;;;;;;16.82;7.90;;;;;;;-5.58;57.06;101357.31;1806129;78;21267;-81
2024/01/09 18:45:45;;;;;;;15.90;8.53;;;;;;;-5.75;56.44;101344.50;1786492;80;21836;-80
2024/01/09 18:48:50;;;;;;;16.50;9.13;;;;;;;-6.52;59.59;101338.82;1809283;79;21255;-80
2024/01/09 18:51:57;;;;;;;12.63;7.22;;;;;;;-6.22;58.31;101349.50;1776924;78;21337;-85
2024/01/09 18:55:03;;;;;;;17.42;8.03;;;;;;;-8.00;62.28;101351.41;1822736;77;21204;-84
2024/01/09 18:58:11;;;;;;;16.27;8.68;;;;;;;-8.00;64.02;101348.75;1774472;80;21261;-86
2024/01/09 19:01:17;;;;;;;19.65;8.65;;;;;;;-8.14;64.20;101342.83;1797915;78;21283;-80
2024/01/09 19:04:23;;;;;;;15.63;8.00;;;;;;;-8.06;64.75;101349.31;1779887;80;21696;-84
2024/01/09 19:07:30;;;;;;;15.48;7.78;;;;;;;-8.30;65.19;101354.23;1802657;78;21890;-80
2024/01/09 19:10:37;;;;;;;12.03;8.08;;;;;;;-8.14;64.83;101356.11;1781743;77;21303;-86
2024/01/09 19:13:44;;;;;;;16.32;8.63;;;;;;;-8.21;64.95;101352.30;1780638;79;21253;-85
2024/01/09 19:16:52;;;;;;;18.87;10.13;;;;;;;-8.20;64.76;101348.73;1773377;81;21295;-80
2024/01/09 19:19:59;;;;;;;33.13;13.98;;;;;;;-8.20;64.25;101337.66;1783420;79;21329;-81
2024/01/09 19:23:06;;;;;;;30.57;13.50;;;;;;;-8.30;64.79;101352.04;1786018;79;21251;-85
2024/01/09 19:26:13;;;;;;;16.40;9.28;;;;;;;-8.29;64.94;101353.78;1786171;79;21297;-80
2024/01/09 19:29:19;;;;;;;15.72;8.68;;;;;;;-8.11;64.45;101360.49;1785812;79;21281;-86
2024/01/09 19:32:24;;;;;;;14.75;8.43;;;;;;;-8.07;64.17;101359.06;1787454;79;21248;-86
2024/01/09 19:35:30;;;;;;;14.95;8.13;;;;;;;-7.74;62.94;101364.54;1786117;80;21266;-81
2024/01/09 19:38:35;;;;;;;14.98;9.03;;;;;;;-8.57;64.61;101370.73;1800395;79;21260;-86
2024/01/09 19:41:42;;;;;;;19.80;9.68;;;;;;;-8.28;65.13;101372.35;1817127;79;21157;-80
2024/01/09 19:44:50;;;;;;;17.15;10.23;;;;;;;-8.36;64.20;101373.44;1849182;77;21259;-80
2024/01/09 19:47:56;;;;;;;23.62;10.45;;;;;;;-8.08;63.87;101377.23;1815889;79;21840;-81
2024/01/09 19:51:03;;;;;;;20.75;11.28;;;;;;;-8.05;64.00;101371.84;1841883;77;21149;-81
2024/01/09 19:54:10;;;;;;;26.95;12.03;;;;;;;-7.98;63.63;101369.48;1768970;80;21315;-86
2024/01/09 19:57:18;;;;;;;24.18;12.10;;;;;;;-8.21;63.92;101364.25;1801211;79;21256;-85
2024/01/09 20:00:25;;;;;;;27.55;13.32;;;;;;;-8.25;64.11;101375.38;1765100;80;21271;-85
2024/01/09 20:03:31;;;;;;;26.05;12.95;;;;;;;-8.02;63.21;101361.16;1773274;81;21184;-84
2024/01/09 20:06:38;;;;;;;26.42;13.25;;;;;;;-7.94;63.34;101372.09;1768218;81;21864;-83
2024/01/09 20:09:45;;;;;;;24.67;12.73;;;;;;;-8.58;64.68;101369.00;1788876;80;21843;-83
2024/01/09 20:12:51;;;;;;;24.00;10.65;;;;;;;-8.54;65.37;101367.58;1789859;80;21286;-84
2024/01/09 20:15:58;;;;;;;20.35;11.80;;;;;;;-8.47;64.82;101372.76;1789870;80;21310;-81
2024/01/09 20:19:04;;;;;;;50.03;18.25;;;;;;;-8.30;64.71;101361.33;1791141;80;21303;-85
2024/01/09 20:22:03;;;;;;;33.78;14.90;;;;;;;-8.16;64.50;101364.56;1791261;80;21309;-85
2024/01/09 20:25:11;;;;;;;25.43;12.63;;;;;;;-8.28;64.08;101360.83;1790321;80;21922;-82
2024/01/09 20:28:16;;;;;;;42.50;16.82;;;;;;;-8.04;63.37;101352.37;1791481;80;21280;-86
2024/01/09 20:31:21;;;;;;;33.50;13.88;;;;;;;-7.92;62.57;101354.33;1795525;78;21245;-81
2024/01/09 20:34:28;;;;;;;34.35;14.05;;;;;;;-8.15;62.52;101371.62;1796073;79;21323;-81
2024/01/09 20:37:34;;;;;;;41.75;17.55;;;;;;;-8.29;62.54;101361.74;1775755;80;21307;-86
2024/01/09 20:40:41;;;;;;;37.98;18.25;;;;;;;-8.13;62.32;101349.05;1803628;78;21270;-86
2024/01/09 20:43:47;;;;;;;45.08;17.40;;;;;;;-8.11;61.74;101345.43;1784619;79;21260;-85
2024/01/09 20:46:55;;;;;;;46.92;18.27;;;;;;;-7.90;61.64;101339.22;1792961;78;21265;-80
2024/01/09 20:50:02;;;;;;;75.87;28.07;;;;;;;-7.97;61.57;101339.36;1809130;77;21239;-82
2024/01/09 20:53:10;;;;;;;58.45;21.57;;;;;;;-8.42;61.71;101344.34;1826893;77;21313;-85
2024/01/09 20:56:17;;;;;;;53.00;19.90;;;;;;;-8.28;62.28;101335.61;1786472;78;21271;-82
2024/01/09 20:59:23;;;;;;;59.40;20.37;;;;;;;-8.26;62.18;101341.78;1804240;78;21295;-85
2024/01/09 21:02:30;;;;;;;47.25;19.52;;;;;;;-8.71;63.12;101348.45;1792993;78;21851;-81
2024/01/09 21:05:36;;;;;;;52.40;22.02;;;;;;;-8.40;62.91;101350.52;1819185;77;21740;-81
2024/01/09 21:08:43;;;;;;;58.05;24.02;;;;;;;-8.31;62.04;101340.55;1738346;78;21286;-85
2024/01/09 21:11:50;;;;;;;64.37;23.27;;;;;;;-8.62;62.58;101341.64;1773066;81;21225;-80
2024/01/09 21:14:55;;;;;;;48.78;20.62;;;;;;;-8.66;63.47;101343.94;1788039;80;21268;-85
2024/01/09 21:18:03;;;;;;;47.90;18.85;;;;;;;-8.84;64.26;101329.73;1780188;80;21777;-82
2024/01/09 21:21:11;;;;;;;49.93;19.87;;;;;;;-8.44;63.57;101334.23;1780303;80;21192;-80
2024/01/09 21:24:17;;;;;;;39.40;17.65;;;;;;;-8.19;61.91;101327.45;1780075;80;21161;-81
2024/01/09 21:27:23;;;;;;;34.50;15.93;;;;;;;-8.55;61.93;101334.46;1779748;80;21888;-85
2024/01/09 21:30:30;;;;;;;44.08;17.35;;;;;;;-8.54;62.78;101334.87;1778791;80;21299;-85
2024/01/09 21:33:37;;;;;;;39.75;16.93;;;;;;;-8.84;64.11;101332.37;1779837;80;21173;-84
2024/01/09 21:36:42;;;;;;;36.15;17.42;;;;;;;-8.59;63.59;101324.81;1778444;80;21983;-86
2024/01/09 21:39:35;;;;;;;39.35;16.97;;;;;;;-8.98;64.17;101325.14;1779855;80;21196;-83
2024/01/09 21:42:23;;;;;;;49.73;18.35;;;;;;;-8.76;64.73;101319.82;1779959;80;21161;-82
2024/01/09 21:45:17;;;;;;;49.90;18.17;;;;;;;-8.98;64.89;101321.16;1779030;80;21311;-85
2024/01/09 21:48:24;;;;;;;43.55;16.97;;;;;;;-8.90;64.78;101320.54;1779224;80;21315;-86
2024/01/09 21:51:30;;;;;;;40.60;17.52;;;;;;;-8.89;64.45;101323.61;1778531;80;21307;-85
2024/01/09 21:54:38;;;;;;;44.73;17.75;;;;;;;-8.68;63.71;101317.91;1778791;80;21819;-85
2024/01/09 21:57:43;;;;;;;37.63;16.23;;;;;;;-8.62;63.22;101317.77;1779791;80;21168;-85
2024/01/09 22:00:49;;;;;;;34.18;16.48;;;;;;;-8.97;64.36;101307.86;1778602;80;21311;-82
2024/01/09 22:03:56;;;;;;;37.93;16.93;;;;;;;-8.72;64.42;101294.99;1778502;80;21963;-81
2024/01/09 22:07:08;;;;;;;33.55;15.20;;;;;;;-8.44;63.38;101277.19;1778535;80;21275;-81
2024/01/09 22:10:14;;;;;;;30.75;14.50;;;;;;;-8.29;62.36;101263.54;1779591;80;21323;-84
2024/01/09 22:13:21;;;;;;;36.95;13.88;;;;;;;-7.73;61.70;101248.94;1776974;80;21279;-86
2024/01/09 22:16:30;;;;;;;34.27;13.18;;;;;;;-7.85;61.68;101239.09;1778307;80;21264;-84
2024/01/09 22:19:36;;;;;;;32.80;13.13;;;;;;;-7.94;61.87;101237.98;1785099;80;21847;-85
2024/01/09 22:22:42;;;;;;;24.20;10.15;;;;;;;-7.91;62.24;101241.41;1766570;81;21300;-85
2024/01/09 22:25:47;;;;;;;23.18;11.15;;;;;;;-8.08;61.95;101253.77;1765964;81;21809;-84
2024/01/09 22:28:54;;;;;;;18.95;9.00;;;;;;;-7.48;60.63;101257.19;1765863;81;21315;-81
2024/01/09 22:32:00;;;;;;;21.93;9.70;;;;;;;-7.40;60.42;101247.66;1766656;81;21272;-85
2024/01/09 22:34:59;;;;;;;18.12;9.50;;;;;;;-7.17;60.12;101235.55;1766103;81;21300;-81
2024/01/09 22:38:05;;;;;;;19.12;9.40;;;;;;;-7.34;60.99;101242.63;1766601;81;21292;-81
2024/01/09 22:41:10;;;;;;;17.25;8.63;;;;;;;-7.19;60.82;101240.92;1766473;81;21857;-82
2024/01/09 22:44:17;;;;;;;13.22;7.75;;;;;;;-7.00;60.37;101234.18;1766757;81;21858;-86
2024/01/09 22:47:21;;;;;;;16.17;8.65;;;;;;;-7.30;60.65;101217.72;1766548;81;21281;-84
2024/01/09 22:50:28;;;;;;;18.92;8.63;;;;;;;-7.27;61.37;101207.88;1765451;81;21312;-86
2024/01/09 22:53:34;;;;;;;16.05;9.23;;;;;;;-7.13;61.29;101211.50;1766495;81;21288;-85
2024/01/09 22:56:42;;;;;;;14.93;8.13;;;;;;;-7.46;61.77;101203.52;1765651;81;21340;-85
2024/01/09 22:59:48;;;;;;;18.15;8.35;;;;;;;-7.48;61.91;101201.80;1765578;81;21276;-84
2024/01/09 23:02:55;;;;;;;19.62;9.00;;;;;;;-7.39;61.58;101202.02;1766621;81;21820;-85
2024/01/09 23:06:02;;;;;;;12.82;7.60;;;;;;;-7.80;62.63;101189.37;1766603;81;21308;-86
2024/01/09 23:09:10;;;;;;;12.95;6.25;;;;;;;-8.20;63.64;101186.36;1766093;81;21291;-85
2024/01/09 23:12:17;;;;;;;19.37;8.73;;;;;;;-8.00;63.33;101188.09;1766518;81;21311;-81
2024/01/09 23:15:25;;;;;;;13.00;7.83;;;;;;;-8.04;63.44;101189.08;1770242;81;21308;-81
2024/01/09 23:18:30;;;;;;;14.55;7.53;;;;;;;-7.26;61.41;101192.80;1771238;81;21333;-81
2024/01/09 23:21:37;;;;;;;18.50;9.28;;;;;;;-7.62;62.17;101186.25;1771189;81;21285;-85
2024/01/09 23:24:44;;;;;;;17.48;8.83;;;;;;;-7.71;62.11;101173.20;1774147;81;21303;-85
2024/01/09 23:27:49;;;;;;;19.70;9.03;;;;;;;-7.47;61.17;101173.88;1777774;79;21860;-84
2024/01/09 23:30:55;;;;;;;15.75;8.03;;;;;;;-7.84;61.35;101169.98;1785936;79;21931;-84
2024/01/09 23:34:02;;;;;;;13.15;7.72;;;;;;;-7.64;61.28;101180.08;1776268;80;21323;-85
2024/01/09 23:37:09;;;;;;;19.17;8.65;;;;;;;-7.74;61.82;101173.27;1774736;81;21276;-82
2024/01/09 23:40:16;;;;;;;16.73;6.90;;;;;;;-7.55;61.92;101175.86;1773845;81;21358;-81
2024/01/09 23:43:23;;;;;;;13.58;7.75;;;;;;;-7.34;61.39;101181.07;1782565;79;21272;-84
2024/01/09 23:46:28;;;;;;;15.85;7.75;;;;;;;-7.27;61.07;101182.63;1782482;79;21253;-85
2024/01/09 23:49:35;;;;;;;13.30;6.50;;;;;;;-7.31;61.55;101192.92;1784420;80;21374;-80
2024/01/09 23:52:42;;;;;;;14.38;7.25;;;;;;;-7.14;61.23;101196.46;1789066;79;21264;-85
2024/01/09 23:55:49;;;;;;;12.65;7.15;;;;;;;-7.16;61.33;101188.97;1786609;79;21840;-85
2024/01/09 23:58:55;;;;;;;13.62;7.67;;;;;;;-6.89;60.91;101185.98;1783841;79;21316;-80
